Time;durP1;ratioP1;P1;durP2;ratioP2;P2;SDS_P1;SDS_P2;PMS_P1;PMS_P2;Temp;Humidity;BMP_temperature;BMP_pressure;BME280_temperature;BME280_humidity;BME280_pressure;Samples;Min_cycle;Max_cycle;Signal;HPM_P1;HPM_P2
2022/05/23 00:08:21;;;;;;;4.53;2.20;;;;;;;16.40;93.90;99571.81;20987625;28;20048;-67
2022/05/23 00:18:23;;;;;;;6.47;2.38;;;;;;;16.34;94.21;99544.88;20985807;28;20425;-67
2022/05/23 00:28:24;;;;;;;6.20;2.28;;;;;;;16.16;94.53;99529.03;20986142;28;20056;-67
2022/05/23 00:38:26;;;;;;;5.78;2.65;;;;;;;16.16;94.20;99510.56;20984855;28;20053;-67
2022/05/23 00:48:30;;;;;;;5.00;2.17;;;;;;;16.26;93.79;99488.94;20984830;28;20044;-66
2022/05/23 00:58:35;;;;;;;6.13;2.53;;;;;;;16.18;93.97;99460.28;21056584;22;20088;-73
2022/05/23 01:08:39;;;;;;;6.60;2.50;;;;;;;16.37;92.00;99455.69;21154149;28;20066;-73
2022/05/23 01:18:41;;;;;;;7.57;2.80;;;;;;;16.11;94.53;99449.19;21153622;28;20476;-71
2022/05/23 01:28:43;;;;;;;4.95;2.60;;;;;;;16.10;94.23;99470.41;21152545;28;20048;-71
2022/05/23 01:38:45;;;;;;;5.60;2.80;;;;;;;15.93;95.65;99454.59;21152041;28;20518;-71
2022/05/23 01:48:46;;;;;;;6.70;2.58;;;;;;;15.83;95.31;99427.84;21151742;28;20058;-71
2022/05/23 02:09:08;;;;;;;4.40;2.25;;;;;;;15.64;96.36;99398.94;21150803;28;20054;-70
2022/05/23 02:19:09;;;;;;;6.07;2.55;;;;;;;15.79;95.19;99389.34;21150842;28;20047;-71
2022/05/23 02:29:12;;;;;;;6.45;2.58;;;;;;;16.10;93.47;99359.50;21151110;28;20051;-72
2022/05/23 02:39:14;;;;;;;4.50;2.30;;;;;;;16.12;92.97;99353.19;21155759;28;20126;-71
2022/05/23 02:49:15;;;;;;;4.85;2.10;;;;;;;16.08;93.58;99341.09;21165164;28;20051;-71
2022/05/23 02:59:17;;;;;;;5.40;2.50;;;;;;;16.12;94.02;99341.78;21164244;28;20073;-72
2022/05/23 03:09:19;;;;;;;4.28;2.40;;;;;;;16.12;94.30;99350.56;21163160;28;20050;-70
2022/05/23 03:19:21;;;;;;;9.50;3.65;;;;;;;15.59;100.00;99496.75;21165644;28;20058;-68
2022/05/23 03:29:22;;;;;;;7.07;3.85;;;;;;;15.16;100.00;99605.31;21161490;28;20519;-68
2022/05/23 03:39:24;;;;;;;6.95;3.97;;;;;;;14.96;100.00;99596.56;21162699;28;20048;-67
2022/05/23 03:49:27;;;;;;;9.75;4.68;;;;;;;15.07;100.00;99611.84;21166693;28;20050;-67
2022/05/23 03:59:29;;;;;;;7.20;4.68;;;;;;;15.01;100.00;99606.88;21164191;28;20055;-67
2022/05/23 04:09:31;;;;;;;8.00;4.85;;;;;;;15.28;100.00;99657.44;21128746;28;20073;-67
2022/05/23 04:19:33;;;;;;;11.25;6.10;;;;;;;15.21;100.00;99587.47;21083208;28;20052;-67
2022/05/23 04:29:35;;;;;;;12.50;5.85;;;;;;;14.97;100.00;99518.31;21092813;28;20401;-69
2022/05/23 04:39:36;;;;;;;12.18;6.35;;;;;;;14.98;100.00;99512.13;21075874;28;20059;-68
2022/05/23 04:49:49;;;;;;;14.98;6.20;;;;;;;15.01;100.00;99460.09;21077432;28;20052;-68
2022/05/23 04:59:51;;;;;;;11.85;6.47;;;;;;;15.13;100.00;99438.38;21076455;28;20071;-68
2022/05/23 05:09:53;;;;;;;9.60;5.82;;;;;;;14.65;100.00;99254.59;21077594;28;20048;-68
2022/05/23 05:19:54;;;;;;;9.60;6.22;;;;;;;14.85;100.00;99328.22;21073943;28;20048;-67
2022/05/23 05:29:57;;;;;;;10.38;6.55;;;;;;;14.99;100.00;99227.34;21071722;28;20052;-68
2022/05/23 05:40:02;;;;;;;9.73;6.05;;;;;;;15.63;100.00;99241.50;21066488;28;20139;-69
2022/05/23 05:50:09;;;;;;;8.65;5.28;;;;;;;15.72;100.00;99234.91;21078252;28;20497;-70
2022/05/23 06:00:11;;;;;;;9.07;5.35;;;;;;;16.13;100.00;99273.03;21066226;28;20519;-71
2022/05/23 06:20:39;;;;;;;10.77;6.25;;;;;;;16.06;100.00;99303.38;21082825;28;20458;-72
2022/05/23 06:30:40;;;;;;;13.02;7.22;;;;;;;16.12;100.00;99292.47;21072144;28;20088;-72
2022/05/23 06:40:43;;;;;;;9.65;6.93;;;;;;;16.20;100.00;99317.59;21080890;28;20420;-72
2022/05/23 06:50:47;;;;;;;10.55;6.53;;;;;;;16.23;100.00;99294.47;21080173;28;20052;-72
2022/05/23 07:00:49;;;;;;;9.67;6.77;;;;;;;16.51;100.00;99304.34;21101064;22;20055;-68
2022/05/23 07:21:11;;;;;;;10.98;6.15;;;;;;;17.45;100.00;99281.13;20944611;28;20052;-65
2022/05/23 07:31:13;;;;;;;9.60;5.47;;;;;;;17.96;100.00;99260.28;20936496;28;20571;-66
2022/05/23 07:41:15;;;;;;;10.93;4.93;;;;;;;17.92;100.00;99216.44;20929293;28;20502;-67
2022/05/23 07:51:19;;;;;;;8.40;4.90;;;;;;;18.19;100.00;99227.84;20954924;28;20048;-65
2022/05/23 08:01:21;;;;;;;7.53;4.07;;;;;;;18.59;100.00;99211.97;20969063;28;20040;-69
2022/05/23 08:11:22;;;;;;;7.30;4.47;;;;;;;18.80;100.00;99203.53;20979526;28;20101;-70
2022/05/23 08:21:25;;;;;;;8.23;4.63;;;;;;;19.20;100.00;99207.75;20978589;28;20114;-69
2022/05/23 08:31:26;;;;;;;8.82;5.57;;;;;;;19.13;100.00;99205.63;20976885;28;20044;-66
2022/05/23 08:41:37;;;;;;;10.55;4.60;;;;;;;19.34;100.00;99228.00;20977136;28;20049;-66
2022/05/23 08:51:57;;;;;;;12.82;5.38;;;;;;;19.39;100.00;99247.09;20978210;28;20616;-69
2022/05/23 09:02:08;;;;;;;9.15;3.70;;;;;;;20.06;100.00;99244.09;20976353;28;20041;-69
2022/05/23 09:12:14;;;;;;;9.30;4.20;;;;;;;20.19;100.00;99234.28;20972299;28;20052;-69
2022/05/23 09:22:51;;;;;;;10.07;4.43;;;;;;;20.17;100.00;99219.38;20974591;28;20082;-70
2022/05/23 09:33:09;;;;;;;6.80;4.50;;;;;;;20.87;95.81;99216.75;20930764;28;20052;-70
2022/05/23 09:53:53;;;;;;;6.60;3.83;;;;;;;21.93;92.41;99219.88;21001395;28;20074;-68
2022/05/23 10:03:55;;;;;;;7.05;3.42;;;;;;;22.19;91.07;99207.13;21000921;28;20072;-69
2022/05/23 10:13:59;;;;;;;6.30;3.20;;;;;;;22.64;91.12;99222.91;20966308;28;20052;-70
2022/05/23 10:24:19;;;;;;;6.97;3.13;;;;;;;22.55;90.50;99245.03;20991284;28;20049;-67
2022/05/23 10:34:34;;;;;;;10.15;4.63;;;;;;;22.11;93.00;99244.22;21000380;28;20055;-67
2022/05/23 10:44:54;;;;;;;7.35;3.40;;;;;;;22.18;94.92;99234.78;21000633;28;20511;-67
2022/05/23 10:55:13;;;;;;;10.30;6.97;;;;;;;21.66;99.33;99164.38;20998599;28;20052;-67
2022/05/23 11:05:33;;;;;;;12.27;6.95;;;;;;;21.30;100.00;99161.97;20984493;28;20055;-66
2022/05/23 11:16:04;;;;;;;96.70;18.10;;;;;;;21.09;100.00;99130.78;20935717;28;20048;-68
2022/05/23 11:26:16;;;;;;;12.48;6.40;;;;;;;20.85;100.00;99220.50;20923136;28;20052;-67
2022/05/23 11:36:33;;;;;;;10.60;6.37;;;;;;;20.62;100.00;99185.03;20983493;28;20051;-68
2022/05/23 11:47:05;;;;;;;10.75;5.95;;;;;;;20.52;100.00;99138.84;20982934;28;20140;-68
2022/05/23 11:57:14;;;;;;;70.32;14.43;;;;;;;20.70;100.00;99114.31;20981693;28;20056;-66
2022/05/23 12:07:37;;;;;;;11.60;4.75;;;;;;;20.35;100.00;99085.09;20980890;28;20051;-66
2022/05/23 12:17:38;;;;;;;10.90;4.95;;;;;;;20.44;100.00;99078.22;20914854;28;20086;-66
2022/05/23 12:27:43;;;;;;;9.48;4.78;;;;;;;20.56;100.00;99072.00;20897044;28;20045;-66
2022/05/23 12:37:51;;;;;;;9.00;4.50;;;;;;;21.11;100.00;99067.59;20895840;28;20053;-66
2022/05/23 12:48:15;;;;;;;7.85;4.22;;;;;;;21.20;99.97;99039.41;20896579;28;20098;-66
2022/05/23 12:58:43;;;;;;;12.80;5.20;;;;;;;21.98;95.63;99008.97;20895299;28;20476;-66
2022/05/23 13:09:00;;;;;;;11.77;4.40;;;;;;;23.16;90.34;99002.19;20892111;28;20041;-67
2022/05/23 13:29:36;;;;;;;9.27;4.00;;;;;;;24.09;85.75;98968.69;20976767;28;20056;-68
2022/05/23 13:39:46;;;;;;;7.63;4.22;;;;;;;23.68;85.09;98951.22;20974776;28;20052;-68
2022/05/23 13:49:58;;;;;;;10.55;4.63;;;;;;;24.16;86.25;98940.41;20974252;28;20048;-68
2022/05/23 14:00:12;;;;;;;10.52;5.07;;;;;;;24.23;86.18;98930.78;20974048;28;20147;-68
2022/05/23 14:10:26;;;;;;;9.77;5.55;;;;;;;24.26;84.82;98917.13;20971416;28;20053;-67
2022/05/23 14:20:41;;;;;;;10.00;5.77;;;;;;;24.33;86.33;98902.16;20890247;28;20052;-67
2022/05/23 14:30:46;;;;;;;11.98;6.18;;;;;;;24.66;85.41;98907.94;20890066;28;20045;-68
2022/05/23 14:40:47;;;;;;;9.50;5.25;;;;;;;24.95;83.37;98885.47;20905908;28;20053;-68
2022/05/23 14:50:54;;;;;;;7.70;4.30;;;;;;;25.54;78.01;98859.88;20905623;28;20053;-67
2022/05/23 15:00:55;;;;;;;9.20;4.22;;;;;;;25.78;73.47;98829.75;20902290;28;20045;-67
2022/05/23 15:10:58;;;;;;;8.27;4.28;;;;;;;25.58;74.98;98837.09;20913856;28;20041;-66
2022/05/23 15:21:01;;;;;;;7.67;3.93;;;;;;;25.18;77.04;98851.91;20984726;28;20117;-67
2022/05/23 15:31:04;;;;;;;8.50;3.58;;;;;;;24.87;78.64;98853.28;20983766;28;20045;-67
2022/05/23 15:41:08;;;;;;;12.98;4.25;;;;;;;25.30;75.52;98842.63;20983060;28;20110;-67
2022/05/23 15:51:12;;;;;;;8.65;4.30;;;;;;;26.13;71.82;98803.75;20981644;28;20454;-67
2022/05/23 16:01:17;;;;;;;10.35;4.28;;;;;;;25.39;72.88;98807.84;20981610;28;20051;-67
2022/05/23 16:11:23;;;;;;;7.82;4.03;;;;;;;24.82;77.88;98803.72;20967953;28;20479;-67
2022/05/23 16:21:26;;;;;;;10.52;3.85;;;;;;;24.74;77.27;98795.59;20896762;28;20049;-67
2022/05/23 16:31:28;;;;;;;9.95;2.85;;;;;;;25.19;66.39;98783.94;20896215;28;20045;-66
2022/05/23 16:41:30;;;;;;;8.02;2.58;;;;;;;25.47;52.49;98795.34;20974849;28;20049;-67
2022/05/23 16:51:33;;;;;;;6.80;1.98;;;;;;;25.48;49.72;98801.53;20978393;28;20044;-67
2022/05/23 17:01:35;;;;;;;8.63;2.00;;;;;;;25.47;48.94;98797.19;20975959;28;20475;-69
2022/05/23 17:11:38;;;;;;;5.10;1.67;;;;;;;25.27;49.37;98794.72;20975725;28;20390;-67
2022/05/23 17:21:44;;;;;;;5.68;1.70;;;;;;;24.95;45.87;98803.31;20976513;28;20060;-70
2022/05/23 17:31:45;;;;;;;6.10;1.70;;;;;;;24.80;46.37;98797.66;20974272;28;20044;-67
2022/05/23 17:41:47;;;;;;;4.38;1.30;;;;;;;24.32;47.40;98797.97;20971033;28;20097;-69
2022/05/23 17:51:49;;;;;;;6.78;1.42;;;;;;;24.09;47.99;98816.28;20974621;28;20045;-67
2022/05/23 18:01:51;;;;;;;9.55;1.70;;;;;;;23.83;48.85;98855.38;20970358;28;20152;-68
2022/05/23 18:11:53;;;;;;;10.75;1.88;;;;;;;22.58;66.34;98915.81;20982816;28;20198;-68
2022/05/23 18:21:57;;;;;;;6.95;1.17;;;;;;;22.00;64.58;98927.06;20989111;28;20052;-68
2022/05/23 18:31:58;;;;;;;5.15;1.20;;;;;;;21.71;67.38;98970.38;20988699;28;20041;-67
2022/05/23 18:42:00;;;;;;;7.32;1.23;;;;;;;21.49;71.20;98983.78;20988134;28;20052;-67
2022/05/23 18:52:02;;;;;;;4.70;1.15;;;;;;;21.20;74.35;98995.00;20986842;28;20148;-68
2022/05/23 19:02:03;;;;;;;4.10;1.27;;;;;;;21.01;76.14;98997.47;21033638;22;20082;-77
2022/05/23 19:12:09;;;;;;;5.32;1.27;;;;;;;20.83;78.03;99009.59;21071887;28;20052;-78
2022/05/23 19:22:19;;;;;;;4.82;1.10;;;;;;;20.59;80.50;99017.72;21054458;28;20177;-77
2022/05/23 19:32:20;;;;;;;7.43;1.50;;;;;;;20.34;82.32;99040.03;21071395;28;20735;-77
2022/05/23 19:42:22;;;;;;;3.00;1.10;;;;;;;20.28;83.90;99056.47;21071667;28;20055;-77
2022/05/23 19:52:24;;;;;;;3.10;1.10;;;;;;;20.18;84.70;99064.28;21053075;28;20048;-77
2022/05/23 20:12:56;;;;;;;3.10;1.17;;;;;;;20.21;85.19;99077.34;21041472;28;20081;-77
2022/05/23 20:22:58;;;;;;;2.37;1.10;;;;;;;20.19;85.48;99082.78;21069300;28;20646;-77
2022/05/23 20:32:59;;;;;;;3.30;0.95;;;;;;;20.10;86.71;99094.09;21066993;28;20044;-77
2022/05/23 20:43:02;;;;;;;4.05;1.00;;;;;;;19.94;88.26;99107.69;21067320;28;20420;-77
2022/05/23 20:53:04;;;;;;;2.67;0.85;;;;;;;19.51;93.97;99117.97;21074832;28;20401;-77
2022/05/23 21:03:06;;;;;;;3.65;1.15;;;;;;;19.26;95.73;99136.59;21066910;28;20055;-77
2022/05/23 21:13:07;;;;;;;5.38;1.40;;;;;;;18.71;100.00;99163.41;21037768;28;20052;-78
2022/05/23 21:23:09;;;;;;;5.72;1.90;;;;;;;18.15;100.00;99159.28;20965430;28;20049;-78
2022/05/23 21:33:12;;;;;;;5.07;1.85;;;;;;;18.04;100.00;99167.94;20983893;28;20411;-78
2022/05/23 21:53:36;;;;;;;4.07;2.05;;;;;;;17.75;100.00;99198.13;21002451;23;20059;-74
2022/05/23 22:03:38;;;;;;;4.28;2.30;;;;;;;17.69;100.00;99209.94;21059885;28;20043;-74
2022/05/23 22:13:39;;;;;;;6.22;2.38;;;;;;;17.43;100.00;99217.69;21151447;28;20044;-76
2022/05/23 22:23:41;;;;;;;6.03;2.47;;;;;;;17.30;100.00;99223.88;21142681;28;20047;-73
2022/05/23 22:33:43;;;;;;;7.75;2.60;;;;;;;17.24;100.00;99235.66;21149580;28;20050;-71
2022/05/23 22:43:45;;;;;;;5.15;2.90;;;;;;;17.24;100.00;99251.53;21149827;28;20051;-71
2022/05/23 22:53:47;;;;;;;4.95;2.80;;;;;;;17.26;100.00;99257.59;21153016;28;20055;-70
2022/05/23 23:14:09;;;;;;;6.90;4.10;;;;;;;17.15;100.00;99271.50;21163888;28;20044;-70
2022/05/23 23:24:10;;;;;;;5.30;3.28;;;;;;;17.14;100.00;99267.13;21163007;28;20080;-71
2022/05/23 23:44:32;;;;;;;5.10;2.90;;;;;;;17.06;100.00;99295.84;21161002;28;20138;-72
2022/05/23 23:54:33;;;;;;;6.30;3.22;;;;;;;17.02;100.00;99310.19;21159895;28;20067;-73
